sensor_id;sensor_type;location;lat;lon;timestamp;P1;durP1;ratioP1;P2;durP2;ratioP2
13040;SDS011;6587;42.728;23.288;2022-07-24T00:01:41;24.55;;;15.38;;
13040;SDS011;6587;42.728;23.288;2022-07-24T00:04:08;27.17;;;16.02;;
13040;SDS011;6587;42.728;23.288;2022-07-24T00:06:35;25.80;;;15.05;;
13040;SDS011;6587;42.728;23.288;2022-07-24T00:09:02;28.95;;;15.20;;
13040;SDS011;6587;42.728;23.288;2022-07-24T00:11:30;21.92;;;14.95;;
13040;SDS011;6587;42.728;23.288;2022-07-24T00:13:57;23.88;;;15.27;;
13040;SDS011;6587;42.728;23.288;2022-07-24T00:16:25;23.05;;;14.98;;
13040;SDS011;6587;42.728;23.288;2022-07-24T00:18:52;25.42;;;15.15;;
13040;SDS011;6587;42.728;23.288;2022-07-24T00:21:19;23.80;;;15.23;;
13040;SDS011;6587;42.728;23.288;2022-07-24T00:23:46;25.58;;;15.43;;
13040;SDS011;6587;42.728;23.288;2022-07-24T00:26:13;22.05;;;14.63;;
13040;SDS011;6587;42.728;23.288;2022-07-24T00:28:40;17.95;;;12.90;;
13040;SDS011;6587;42.728;23.288;2022-07-24T00:31:07;22.95;;;14.45;;
13040;SDS011;6587;42.728;23.288;2022-07-24T00:33:35;23.85;;;13.25;;
13040;SDS011;6587;42.728;23.288;2022-07-24T00:36:02;22.45;;;12.93;;
13040;SDS011;6587;42.728;23.288;2022-07-24T00:38:29;20.63;;;13.55;;
13040;SDS011;6587;42.728;23.288;2022-07-24T00:40:56;20.87;;;14.33;;
13040;SDS011;6587;42.728;23.288;2022-07-24T00:43:23;24.80;;;13.73;;
13040;SDS011;6587;42.728;23.288;2022-07-24T00:45:50;24.23;;;13.97;;
13040;SDS011;6587;42.728;23.288;2022-07-24T00:48:17;26.40;;;14.47;;
13040;SDS011;6587;42.728;23.288;2022-07-24T00:50:46;24.33;;;13.43;;
13040;SDS011;6587;42.728;23.288;2022-07-24T00:53:13;23.67;;;14.00;;
13040;SDS011;6587;42.728;23.288;2022-07-24T00:55:41;22.73;;;13.63;;
13040;SDS011;6587;42.728;23.288;2022-07-24T00:58:08;21.00;;;12.97;;
13040;SDS011;6587;42.728;23.288;2022-07-24T01:00:38;25.27;;;13.03;;
13040;SDS011;6587;42.728;23.288;2022-07-24T01:03:05;20.60;;;11.50;;
13040;SDS011;6587;42.728;23.288;2022-07-24T01:05:32;21.30;;;12.13;;
13040;SDS011;6587;42.728;23.288;2022-07-24T01:08:01;14.43;;;11.43;;
13040;SDS011;6587;42.728;23.288;2022-07-24T01:10:28;15.37;;;10.87;;
13040;SDS011;6587;42.728;23.288;2022-07-24T01:12:55;18.33;;;10.30;;
13040;SDS011;6587;42.728;23.288;2022-07-24T01:15:23;19.87;;;10.30;;
13040;SDS011;6587;42.728;23.288;2022-07-24T01:17:50;14.63;;;10.13;;
13040;SDS011;6587;42.728;23.288;2022-07-24T01:20:17;18.97;;;9.70;;
13040;SDS011;6587;42.728;23.288;2022-07-24T01:22:45;12.87;;;9.63;;
13040;SDS011;6587;42.728;23.288;2022-07-24T01:25:12;15.87;;;10.07;;
13040;SDS011;6587;42.728;23.288;2022-07-24T01:27:39;16.83;;;9.07;;
13040;SDS011;6587;42.728;23.288;2022-07-24T01:30:07;14.43;;;8.40;;
13040;SDS011;6587;42.728;23.288;2022-07-24T01:32:35;15.83;;;8.77;;
13040;SDS011;6587;42.728;23.288;2022-07-24T01:35:02;12.17;;;8.70;;
13040;SDS011;6587;42.728;23.288;2022-07-24T01:37:30;14.10;;;8.80;;
13040;SDS011;6587;42.728;23.288;2022-07-24T01:39:58;15.77;;;9.30;;
13040;SDS011;6587;42.728;23.288;2022-07-24T01:42:25;17.87;;;9.83;;
13040;SDS011;6587;42.728;23.288;2022-07-24T01:44:52;13.90;;;8.63;;
13040;SDS011;6587;42.728;23.288;2022-07-24T01:47:19;11.87;;;9.30;;
13040;SDS011;6587;42.728;23.288;2022-07-24T01:49:46;14.67;;;9.00;;
13040;SDS011;6587;42.728;23.288;2022-07-24T01:52:13;13.60;;;8.50;;
13040;SDS011;6587;42.728;23.288;2022-07-24T01:54:40;15.77;;;9.50;;
13040;SDS011;6587;42.728;23.288;2022-07-24T01:57:08;14.40;;;9.17;;
13040;SDS011;6587;42.728;23.288;2022-07-24T01:59:37;13.80;;;8.57;;
13040;SDS011;6587;42.728;23.288;2022-07-24T02:02:04;11.97;;;8.83;;
13040;SDS011;6587;42.728;23.288;2022-07-24T02:04:31;15.10;;;9.30;;
13040;SDS011;6587;42.728;23.288;2022-07-24T02:06:58;12.97;;;8.97;;
13040;SDS011;6587;42.728;23.288;2022-07-24T02:09:25;16.10;;;9.67;;
13040;SDS011;6587;42.728;23.288;2022-07-24T02:11:52;14.90;;;9.37;;
13040;SDS011;6587;42.728;23.288;2022-07-24T02:14:20;13.57;;;9.37;;
13040;SDS011;6587;42.728;23.288;2022-07-24T02:16:47;15.80;;;8.77;;
13040;SDS011;6587;42.728;23.288;2022-07-24T02:19:14;15.13;;;9.67;;
13040;SDS011;6587;42.728;23.288;2022-07-24T02:21:41;15.93;;;10.27;;
13040;SDS011;6587;42.728;23.288;2022-07-24T02:24:08;15.77;;;8.77;;
13040;SDS011;6587;42.728;23.288;2022-07-24T02:26:35;13.63;;;8.97;;
13040;SDS011;6587;42.728;23.288;2022-07-24T02:29:02;17.77;;;9.30;;
13040;SDS011;6587;42.728;23.288;2022-07-24T02:31:31;16.30;;;9.40;;
13040;SDS011;6587;42.728;23.288;2022-07-24T02:33:57;20.70;;;10.10;;
13040;SDS011;6587;42.728;23.288;2022-07-24T02:36:24;14.93;;;9.50;;
13040;SDS011;6587;42.728;23.288;2022-07-24T02:38:51;12.57;;;8.57;;
13040;SDS011;6587;42.728;23.288;2022-07-24T02:41:18;14.87;;;9.03;;
13040;SDS011;6587;42.728;23.288;2022-07-24T02:43:45;14.00;;;9.03;;
13040;SDS011;6587;42.728;23.288;2022-07-24T02:46:12;15.10;;;9.17;;
13040;SDS011;6587;42.728;23.288;2022-07-24T02:48:41;14.47;;;9.20;;
13040;SDS011;6587;42.728;23.288;2022-07-24T02:51:08;15.17;;;9.23;;
13040;SDS011;6587;42.728;23.288;2022-07-24T02:53:35;15.40;;;9.30;;
13040;SDS011;6587;42.728;23.288;2022-07-24T02:56:03;20.00;;;9.97;;
13040;SDS011;6587;42.728;23.288;2022-07-24T02:58:30;15.40;;;8.80;;
13040;SDS011;6587;42.728;23.288;2022-07-24T03:00:57;20.93;;;9.90;;
13040;SDS011;6587;42.728;23.288;2022-07-24T03:03:24;15.60;;;9.67;;
13040;SDS011;6587;42.728;23.288;2022-07-24T03:05:52;16.20;;;9.40;;
13040;SDS011;6587;42.728;23.288;2022-07-24T03:08:19;16.20;;;9.23;;
13040;SDS011;6587;42.728;23.288;2022-07-24T03:10:46;16.67;;;9.40;;
13040;SDS011;6587;42.728;23.288;2022-07-24T03:13:13;15.90;;;9.07;;
13040;SDS011;6587;42.728;23.288;2022-07-24T03:15:40;16.23;;;9.67;;
13040;SDS011;6587;42.728;23.288;2022-07-24T03:18:07;12.77;;;8.60;;
13040;SDS011;6587;42.728;23.288;2022-07-24T03:20:34;10.60;;;8.27;;
13040;SDS011;6587;42.728;23.288;2022-07-24T03:23:03;12.70;;;8.50;;
13040;SDS011;6587;42.728;23.288;2022-07-24T03:25:30;20.27;;;8.87;;
13040;SDS011;6587;42.728;23.288;2022-07-24T03:27:57;12.17;;;8.37;;
13040;SDS011;6587;42.728;23.288;2022-07-24T03:30:24;12.23;;;8.70;;
13040;SDS011;6587;42.728;23.288;2022-07-24T03:32:50;14.67;;;8.30;;
13040;SDS011;6587;42.728;23.288;2022-07-24T03:35:17;13.87;;;8.43;;
13040;SDS011;6587;42.728;23.288;2022-07-24T03:37:44;13.93;;;8.73;;
13040;SDS011;6587;42.728;23.288;2022-07-24T03:40:13;15.13;;;8.73;;
13040;SDS011;6587;42.728;23.288;2022-07-24T03:42:40;13.17;;;8.67;;
13040;SDS011;6587;42.728;23.288;2022-07-24T03:45:07;14.23;;;9.00;;
13040;SDS011;6587;42.728;23.288;2022-07-24T03:47:36;15.57;;;8.80;;
13040;SDS011;6587;42.728;23.288;2022-07-24T03:50:03;15.70;;;8.70;;
13040;SDS011;6587;42.728;23.288;2022-07-24T03:52:31;16.73;;;8.83;;
13040;SDS011;6587;42.728;23.288;2022-07-24T03:54:58;16.53;;;9.27;;
13040;SDS011;6587;42.728;23.288;2022-07-24T03:57:26;17.30;;;8.77;;
13040;SDS011;6587;42.728;23.288;2022-07-24T03:59:53;14.33;;;8.90;;
13040;SDS011;6587;42.728;23.288;2022-07-24T04:02:20;17.90;;;9.20;;
13040;SDS011;6587;42.728;23.288;2022-07-24T04:04:47;15.60;;;8.90;;
13040;SDS011;6587;42.728;23.288;2022-07-24T04:07:13;18.37;;;9.10;;
13040;SDS011;6587;42.728;23.288;2022-07-24T04:09:40;16.43;;;9.10;;
13040;SDS011;6587;42.728;23.288;2022-07-24T04:12:08;18.40;;;9.50;;
13040;SDS011;6587;42.728;23.288;2022-07-24T04:14:36;16.83;;;9.40;;
13040;SDS011;6587;42.728;23.288;2022-07-24T04:17:03;18.77;;;9.30;;
13040;SDS011;6587;42.728;23.288;2022-07-24T04:19:30;16.23;;;9.73;;
13040;SDS011;6587;42.728;23.288;2022-07-24T04:21:57;17.33;;;9.57;;
13040;SDS011;6587;42.728;23.288;2022-07-24T04:24:24;20.63;;;9.57;;
13040;SDS011;6587;42.728;23.288;2022-07-24T04:26:51;16.30;;;9.17;;
13040;SDS011;6587;42.728;23.288;2022-07-24T04:29:17;19.00;;;9.83;;
13040;SDS011;6587;42.728;23.288;2022-07-24T04:31:46;15.87;;;9.23;;
13040;SDS011;6587;42.728;23.288;2022-07-24T04:34:13;17.87;;;9.73;;
13040;SDS011;6587;42.728;23.288;2022-07-24T04:36:39;17.00;;;9.53;;
13040;SDS011;6587;42.728;23.288;2022-07-24T04:39:06;25.23;;;9.57;;
13040;SDS011;6587;42.728;23.288;2022-07-24T04:41:33;17.03;;;9.43;;
13040;SDS011;6587;42.728;23.288;2022-07-24T04:44:00;32.77;;;24.70;;
13040;SDS011;6587;42.728;23.288;2022-07-24T04:46:27;47.50;;;38.17;;
13040;SDS011;6587;42.728;23.288;2022-07-24T04:48:56;35.47;;;25.87;;
13040;SDS011;6587;42.728;23.288;2022-07-24T04:51:22;37.30;;;25.63;;
13040;SDS011;6587;42.728;23.288;2022-07-24T04:53:50;20.10;;;12.93;;
13040;SDS011;6587;42.728;23.288;2022-07-24T04:56:18;18.47;;;11.07;;
13040;SDS011;6587;42.728;23.288;2022-07-24T04:58:45;20.63;;;10.53;;
13040;SDS011;6587;42.728;23.288;2022-07-24T05:01:12;26.20;;;12.63;;
13040;SDS011;6587;42.728;23.288;2022-07-24T05:03:39;26.37;;;11.63;;
13040;SDS011;6587;42.728;23.288;2022-07-24T05:06:07;21.43;;;11.37;;
13040;SDS011;6587;42.728;23.288;2022-07-24T05:08:34;25.23;;;13.00;;
13040;SDS011;6587;42.728;23.288;2022-07-24T05:11:01;29.47;;;13.67;;
13040;SDS011;6587;42.728;23.288;2022-07-24T05:13:28;27.47;;;12.93;;
13040;SDS011;6587;42.728;23.288;2022-07-24T05:15:55;22.43;;;12.13;;
13040;SDS011;6587;42.728;23.288;2022-07-24T05:18:22;31.97;;;12.43;;
13040;SDS011;6587;42.728;23.288;2022-07-24T05:20:49;16.63;;;10.10;;
13040;SDS011;6587;42.728;23.288;2022-07-24T05:23:17;14.63;;;9.50;;
13040;SDS011;6587;42.728;23.288;2022-07-24T05:25:44;15.77;;;10.20;;
13040;SDS011;6587;42.728;23.288;2022-07-24T05:28:11;19.70;;;10.50;;
13040;SDS011;6587;42.728;23.288;2022-07-24T05:30:38;18.70;;;9.30;;
13040;SDS011;6587;42.728;23.288;2022-07-24T05:33:05;20.57;;;10.40;;
13040;SDS011;6587;42.728;23.288;2022-07-24T05:35:31;17.77;;;10.37;;
13040;SDS011;6587;42.728;23.288;2022-07-24T05:37:58;15.93;;;9.57;;
13040;SDS011;6587;42.728;23.288;2022-07-24T05:40:27;17.98;;;9.77;;
13040;SDS011;6587;42.728;23.288;2022-07-24T05:42:53;14.03;;;8.97;;
13040;SDS011;6587;42.728;23.288;2022-07-24T05:45:20;19.02;;;9.68;;
13040;SDS011;6587;42.728;23.288;2022-07-24T05:47:47;14.35;;;9.90;;
13040;SDS011;6587;42.728;23.288;2022-07-24T05:50:14;17.90;;;9.23;;
13040;SDS011;6587;42.728;23.288;2022-07-24T05:52:41;17.35;;;9.82;;
13040;SDS011;6587;42.728;23.288;2022-07-24T05:55:08;18.00;;;9.82;;
13040;SDS011;6587;42.728;23.288;2022-07-24T05:57:37;13.75;;;10.60;;
13040;SDS011;6587;42.728;23.288;2022-07-24T06:00:05;17.95;;;10.10;;
13040;SDS011;6587;42.728;23.288;2022-07-24T06:02:37;20.75;;;10.80;;
13040;SDS011;6587;42.728;23.288;2022-07-24T06:05:04;15.88;;;10.30;;
13040;SDS011;6587;42.728;23.288;2022-07-24T06:07:31;17.23;;;10.75;;
13040;SDS011;6587;42.728;23.288;2022-07-24T06:09:58;22.45;;;10.43;;
13040;SDS011;6587;42.728;23.288;2022-07-24T06:12:25;21.48;;;10.77;;
13040;SDS011;6587;42.728;23.288;2022-07-24T06:14:53;16.55;;;10.95;;
13040;SDS011;6587;42.728;23.288;2022-07-24T06:17:20;22.05;;;11.30;;
13040;SDS011;6587;42.728;23.288;2022-07-24T06:19:47;21.88;;;11.23;;
13040;SDS011;6587;42.728;23.288;2022-07-24T06:22:14;17.33;;;10.13;;
13040;SDS011;6587;42.728;23.288;2022-07-24T06:24:40;18.25;;;10.73;;
13040;SDS011;6587;42.728;23.288;2022-07-24T06:27:07;18.15;;;10.60;;
13040;SDS011;6587;42.728;23.288;2022-07-24T06:29:34;19.15;;;10.73;;
13040;SDS011;6587;42.728;23.288;2022-07-24T06:32:02;20.48;;;10.80;;
13040;SDS011;6587;42.728;23.288;2022-07-24T06:34:30;22.65;;;11.38;;
13040;SDS011;6587;42.728;23.288;2022-07-24T06:36:56;18.60;;;10.52;;
13040;SDS011;6587;42.728;23.288;2022-07-24T06:39:23;20.60;;;11.88;;
13040;SDS011;6587;42.728;23.288;2022-07-24T06:41:50;21.95;;;11.13;;
13040;SDS011;6587;42.728;23.288;2022-07-24T06:44:23;26.58;;;12.45;;
13040;SDS011;6587;42.728;23.288;2022-07-24T06:46:51;21.73;;;10.95;;
13040;SDS011;6587;42.728;23.288;2022-07-24T06:49:19;20.67;;;11.05;;
13040;SDS011;6587;42.728;23.288;2022-07-24T06:51:46;20.42;;;11.32;;
13040;SDS011;6587;42.728;23.288;2022-07-24T06:54:13;17.85;;;10.93;;
13040;SDS011;6587;42.728;23.288;2022-07-24T06:56:40;15.65;;;10.88;;
13040;SDS011;6587;42.728;23.288;2022-07-24T06:59:07;22.70;;;12.20;;
13040;SDS011;6587;42.728;23.288;2022-07-24T07:01:34;19.38;;;11.20;;
13040;SDS011;6587;42.728;23.288;2022-07-24T07:04:01;17.25;;;11.15;;
13040;SDS011;6587;42.728;23.288;2022-07-24T07:06:29;21.55;;;12.80;;
13040;SDS011;6587;42.728;23.288;2022-07-24T07:08:56;16.80;;;10.73;;
13040;SDS011;6587;42.728;23.288;2022-07-24T07:11:22;20.30;;;10.57;;
13040;SDS011;6587;42.728;23.288;2022-07-24T07:13:49;17.15;;;10.93;;
13040;SDS011;6587;42.728;23.288;2022-07-24T07:16:16;18.27;;;11.40;;
13040;SDS011;6587;42.728;23.288;2022-07-24T07:18:43;16.13;;;11.18;;
13040;SDS011;6587;42.728;23.288;2022-07-24T07:21:10;15.95;;;10.27;;
13040;SDS011;6587;42.728;23.288;2022-07-24T07:23:38;21.40;;;11.20;;
13040;SDS011;6587;42.728;23.288;2022-07-24T07:26:05;20.13;;;10.85;;
13040;SDS011;6587;42.728;23.288;2022-07-24T07:28:32;22.63;;;10.90;;
13040;SDS011;6587;42.728;23.288;2022-07-24T07:30:59;19.55;;;11.05;;
13040;SDS011;6587;42.728;23.288;2022-07-24T07:33:26;16.48;;;11.05;;
13040;SDS011;6587;42.728;23.288;2022-07-24T07:35:53;17.65;;;10.68;;
13040;SDS011;6587;42.728;23.288;2022-07-24T07:38:20;20.08;;;11.30;;
13040;SDS011;6587;42.728;23.288;2022-07-24T07:40:48;17.27;;;10.50;;
13040;SDS011;6587;42.728;23.288;2022-07-24T07:43:15;16.33;;;10.52;;
13040;SDS011;6587;42.728;23.288;2022-07-24T07:45:42;20.80;;;10.40;;
13040;SDS011;6587;42.728;23.288;2022-07-24T07:48:09;21.42;;;10.35;;
13040;SDS011;6587;42.728;23.288;2022-07-24T07:50:36;26.83;;;11.93;;
13040;SDS011;6587;42.728;23.288;2022-07-24T07:53:02;19.75;;;10.77;;
13040;SDS011;6587;42.728;23.288;2022-07-24T07:55:29;19.83;;;10.48;;
13040;SDS011;6587;42.728;23.288;2022-07-24T07:57:58;17.13;;;9.75;;
13040;SDS011;6587;42.728;23.288;2022-07-24T08:00:24;17.98;;;10.40;;
13040;SDS011;6587;42.728;23.288;2022-07-24T08:02:51;14.93;;;10.10;;
13040;SDS011;6587;42.728;23.288;2022-07-24T08:05:18;20.63;;;10.80;;
13040;SDS011;6587;42.728;23.288;2022-07-24T08:07:45;17.58;;;9.85;;
13040;SDS011;6587;42.728;23.288;2022-07-24T08:10:12;18.60;;;9.07;;
13040;SDS011;6587;42.728;23.288;2022-07-24T08:12:39;23.75;;;9.50;;
13040;SDS011;6587;42.728;23.288;2022-07-24T08:15:08;15.50;;;10.13;;
13040;SDS011;6587;42.728;23.288;2022-07-24T08:17:36;15.65;;;10.20;;
13040;SDS011;6587;42.728;23.288;2022-07-24T08:20:03;15.02;;;9.80;;
13040;SDS011;6587;42.728;23.288;2022-07-24T08:22:31;18.80;;;9.80;;
13040;SDS011;6587;42.728;23.288;2022-07-24T08:24:57;18.98;;;9.52;;
13040;SDS011;6587;42.728;23.288;2022-07-24T08:27:24;18.50;;;9.57;;
13040;SDS011;6587;42.728;23.288;2022-07-24T08:29:52;17.88;;;10.55;;
13040;SDS011;6587;42.728;23.288;2022-07-24T08:32:21;24.98;;;9.85;;
13040;SDS011;6587;42.728;23.288;2022-07-24T08:34:48;18.15;;;9.45;;
13040;SDS011;6587;42.728;23.288;2022-07-24T08:37:18;13.90;;;9.55;;
13040;SDS011;6587;42.728;23.288;2022-07-24T08:39:45;23.13;;;10.57;;
13040;SDS011;6587;42.728;23.288;2022-07-24T08:42:12;15.18;;;9.02;;
13040;SDS011;6587;42.728;23.288;2022-07-24T08:44:39;19.20;;;10.38;;
13040;SDS011;6587;42.728;23.288;2022-07-24T08:47:06;18.63;;;9.73;;
13040;SDS011;6587;42.728;23.288;2022-07-24T08:49:36;19.27;;;10.50;;
13040;SDS011;6587;42.728;23.288;2022-07-24T08:52:04;19.42;;;10.18;;
13040;SDS011;6587;42.728;23.288;2022-07-24T08:54:33;17.02;;;10.77;;
13040;SDS011;6587;42.728;23.288;2022-07-24T08:57:01;18.23;;;11.00;;
13040;SDS011;6587;42.728;23.288;2022-07-24T08:59:28;18.15;;;10.45;;
13040;SDS011;6587;42.728;23.288;2022-07-24T09:01:56;16.10;;;10.27;;
13040;SDS011;6587;42.728;23.288;2022-07-24T09:04:33;20.65;;;11.40;;
13040;SDS011;6587;42.728;23.288;2022-07-24T09:07:04;14.35;;;9.77;;
13040;SDS011;6587;42.728;23.288;2022-07-24T09:09:32;18.52;;;9.98;;
13040;SDS011;6587;42.728;23.288;2022-07-24T09:12:03;14.02;;;10.32;;
13040;SDS011;6587;42.728;23.288;2022-07-24T09:14:35;19.88;;;10.43;;
13040;SDS011;6587;42.728;23.288;2022-07-24T09:17:04;18.23;;;11.00;;
13040;SDS011;6587;42.728;23.288;2022-07-24T09:22:25;16.10;;;10.52;;
13040;SDS011;6587;42.728;23.288;2022-07-24T09:25:04;18.27;;;10.07;;
13040;SDS011;6587;42.728;23.288;2022-07-24T09:27:37;20.25;;;10.50;;
13040;SDS011;6587;42.728;23.288;2022-07-24T09:30:06;19.83;;;10.45;;
13040;SDS011;6587;42.728;23.288;2022-07-24T09:32:34;19.05;;;9.40;;
13040;SDS011;6587;42.728;23.288;2022-07-24T09:35:03;14.77;;;9.68;;
13040;SDS011;6587;42.728;23.288;2022-07-24T09:37:31;20.00;;;9.73;;
13040;SDS011;6587;42.728;23.288;2022-07-24T09:40:08;14.57;;;9.48;;
13040;SDS011;6587;42.728;23.288;2022-07-24T09:42:36;14.73;;;9.50;;
13040;SDS011;6587;42.728;23.288;2022-07-24T09:45:07;15.60;;;8.85;;
13040;SDS011;6587;42.728;23.288;2022-07-24T09:47:37;17.75;;;8.40;;
13040;SDS011;6587;42.728;23.288;2022-07-24T09:50:13;14.52;;;9.10;;
13040;SDS011;6587;42.728;23.288;2022-07-24T09:52:43;18.23;;;9.40;;
13040;SDS011;6587;42.728;23.288;2022-07-24T09:55:21;14.05;;;8.40;;
13040;SDS011;6587;42.728;23.288;2022-07-24T09:57:49;13.27;;;8.93;;
13040;SDS011;6587;42.728;23.288;2022-07-24T10:00:17;13.27;;;8.50;;
13040;SDS011;6587;42.728;23.288;2022-07-24T10:02:44;14.63;;;8.23;;
13040;SDS011;6587;42.728;23.288;2022-07-24T10:05:14;13.02;;;8.25;;
13040;SDS011;6587;42.728;23.288;2022-07-24T10:07:41;16.35;;;8.52;;
13040;SDS011;6587;42.728;23.288;2022-07-24T10:10:10;13.57;;;8.23;;
13040;SDS011;6587;42.728;23.288;2022-07-24T10:12:38;10.15;;;8.13;;
13040;SDS011;6587;42.728;23.288;2022-07-24T10:15:06;12.07;;;8.13;;
13040;SDS011;6587;42.728;23.288;2022-07-24T10:17:41;13.93;;;8.27;;
13040;SDS011;6587;42.728;23.288;2022-07-24T10:20:37;14.95;;;8.15;;
13040;SDS011;6587;42.728;23.288;2022-07-24T10:23:06;13.75;;;8.25;;
13040;SDS011;6587;42.728;23.288;2022-07-24T10:25:38;10.55;;;7.60;;
13040;SDS011;6587;42.728;23.288;2022-07-24T10:28:20;13.85;;;7.47;;
13040;SDS011;6587;42.728;23.288;2022-07-24T10:31:01;11.82;;;7.72;;
13040;SDS011;6587;42.728;23.288;2022-07-24T10:33:29;12.52;;;8.07;;
13040;SDS011;6587;42.728;23.288;2022-07-24T10:35:58;11.20;;;7.78;;
13040;SDS011;6587;42.728;23.288;2022-07-24T10:38:30;11.02;;;7.93;;
13040;SDS011;6587;42.728;23.288;2022-07-24T10:41:02;12.60;;;7.82;;
13040;SDS011;6587;42.728;23.288;2022-07-24T10:43:35;9.80;;;8.13;;
13040;SDS011;6587;42.728;23.288;2022-07-24T10:46:11;12.95;;;8.00;;
13040;SDS011;6587;42.728;23.288;2022-07-24T10:48:39;12.25;;;8.57;;
13040;SDS011;6587;42.728;23.288;2022-07-24T10:51:08;9.75;;;7.57;;
13040;SDS011;6587;42.728;23.288;2022-07-24T10:56:27;13.07;;;7.47;;
13040;SDS011;6587;42.728;23.288;2022-07-24T10:59:04;12.43;;;8.13;;
13040;SDS011;6587;42.728;23.288;2022-07-24T11:01:34;12.20;;;7.88;;
13040;SDS011;6587;42.728;23.288;2022-07-24T11:04:04;10.48;;;8.10;;
13040;SDS011;6587;42.728;23.288;2022-07-24T11:06:52;11.63;;;7.60;;
13040;SDS011;6587;42.728;23.288;2022-07-24T11:09:21;17.00;;;8.52;;
13040;SDS011;6587;42.728;23.288;2022-07-24T11:12:02;11.75;;;7.78;;
13040;SDS011;6587;42.728;23.288;2022-07-24T11:14:47;10.48;;;8.10;;
13040;SDS011;6587;42.728;23.288;2022-07-24T11:20:11;10.88;;;8.15;;
13040;SDS011;6587;42.728;23.288;2022-07-24T11:22:42;13.23;;;8.13;;
13040;SDS011;6587;42.728;23.288;2022-07-24T11:25:13;15.90;;;8.48;;
13040;SDS011;6587;42.728;23.288;2022-07-24T11:27:42;14.57;;;8.07;;
13040;SDS011;6587;42.728;23.288;2022-07-24T11:30:14;13.23;;;8.55;;
13040;SDS011;6587;42.728;23.288;2022-07-24T11:32:42;13.25;;;8.48;;
13040;SDS011;6587;42.728;23.288;2022-07-24T11:35:09;13.48;;;8.20;;
13040;SDS011;6587;42.728;23.288;2022-07-24T11:37:38;13.20;;;8.70;;
13040;SDS011;6587;42.728;23.288;2022-07-24T11:40:08;14.63;;;9.00;;
13040;SDS011;6587;42.728;23.288;2022-07-24T11:42:40;14.30;;;8.88;;
13040;SDS011;6587;42.728;23.288;2022-07-24T11:45:08;14.13;;;8.55;;
13040;SDS011;6587;42.728;23.288;2022-07-24T11:47:35;14.32;;;8.75;;
13040;SDS011;6587;42.728;23.288;2022-07-24T11:50:03;11.25;;;8.38;;
13040;SDS011;6587;42.728;23.288;2022-07-24T11:52:32;11.95;;;7.88;;
13040;SDS011;6587;42.728;23.288;2022-07-24T11:55:02;12.55;;;8.52;;
13040;SDS011;6587;42.728;23.288;2022-07-24T11:57:33;9.48;;;8.13;;
13040;SDS011;6587;42.728;23.288;2022-07-24T12:00:03;16.70;;;8.23;;
13040;SDS011;6587;42.728;23.288;2022-07-24T12:02:37;11.65;;;8.20;;
13040;SDS011;6587;42.728;23.288;2022-07-24T12:05:08;10.65;;;7.70;;
13040;SDS011;6587;42.728;23.288;2022-07-24T12:07:35;13.82;;;7.93;;
13040;SDS011;6587;42.728;23.288;2022-07-24T12:10:02;13.55;;;8.82;;
13040;SDS011;6587;42.728;23.288;2022-07-24T12:12:30;13.57;;;8.10;;
13040;SDS011;6587;42.728;23.288;2022-07-24T12:15:04;11.38;;;7.95;;
13040;SDS011;6587;42.728;23.288;2022-07-24T12:17:33;12.90;;;8.32;;
13040;SDS011;6587;42.728;23.288;2022-07-24T12:20:02;12.68;;;9.00;;
13040;SDS011;6587;42.728;23.288;2022-07-24T12:22:32;13.02;;;8.35;;
13040;SDS011;6587;42.728;23.288;2022-07-24T12:24:59;10.18;;;8.20;;
13040;SDS011;6587;42.728;23.288;2022-07-24T12:27:39;10.88;;;8.63;;
13040;SDS011;6587;42.728;23.288;2022-07-24T12:30:22;11.52;;;9.00;;
13040;SDS011;6587;42.728;23.288;2022-07-24T12:32:53;12.45;;;8.73;;
13040;SDS011;6587;42.728;23.288;2022-07-24T12:35:31;13.63;;;8.90;;
13040;SDS011;6587;42.728;23.288;2022-07-24T12:37:59;12.13;;;8.40;;
13040;SDS011;6587;42.728;23.288;2022-07-24T12:40:29;12.27;;;8.32;;
13040;SDS011;6587;42.728;23.288;2022-07-24T12:43:01;11.48;;;8.40;;
13040;SDS011;6587;42.728;23.288;2022-07-24T12:45:34;9.70;;;7.97;;
13040;SDS011;6587;42.728;23.288;2022-07-24T12:48:04;16.70;;;8.68;;
13040;SDS011;6587;42.728;23.288;2022-07-24T12:50:33;10.52;;;8.02;;
13040;SDS011;6587;42.728;23.288;2022-07-24T12:53:01;10.18;;;8.38;;
13040;SDS011;6587;42.728;23.288;2022-07-24T12:55:29;12.02;;;8.90;;
13040;SDS011;6587;42.728;23.288;2022-07-24T12:57:56;8.88;;;8.07;;
13040;SDS011;6587;42.728;23.288;2022-07-24T13:00:25;13.68;;;9.38;;
13040;SDS011;6587;42.728;23.288;2022-07-24T13:02:53;12.10;;;8.73;;
13040;SDS011;6587;42.728;23.288;2022-07-24T13:05:35;12.75;;;8.70;;
13040;SDS011;6587;42.728;23.288;2022-07-24T13:08:03;13.07;;;8.68;;
13040;SDS011;6587;42.728;23.288;2022-07-24T13:10:30;11.82;;;9.02;;
13040;SDS011;6587;42.728;23.288;2022-07-24T13:12:57;11.93;;;8.60;;
13040;SDS011;6587;42.728;23.288;2022-07-24T13:15:23;12.98;;;8.40;;
13040;SDS011;6587;42.728;23.288;2022-07-24T13:17:50;12.65;;;10.93;;
13040;SDS011;6587;42.728;23.288;2022-07-24T13:20:19;14.75;;;10.00;;
13040;SDS011;6587;42.728;23.288;2022-07-24T13:22:46;13.80;;;8.10;;
13040;SDS011;6587;42.728;23.288;2022-07-24T13:25:13;10.20;;;7.82;;
13040;SDS011;6587;42.728;23.288;2022-07-24T13:27:40;8.63;;;7.93;;
13040;SDS011;6587;42.728;23.288;2022-07-24T13:30:07;17.83;;;12.02;;
13040;SDS011;6587;42.728;23.288;2022-07-24T13:32:35;11.68;;;9.57;;
13040;SDS011;6587;42.728;23.288;2022-07-24T13:35:02;10.02;;;8.82;;
13040;SDS011;6587;42.728;23.288;2022-07-24T13:37:30;17.45;;;10.20;;
13040;SDS011;6587;42.728;23.288;2022-07-24T13:39:57;10.85;;;9.57;;
13040;SDS011;6587;42.728;23.288;2022-07-24T13:42:24;10.52;;;8.93;;
13040;SDS011;6587;42.728;23.288;2022-07-24T13:44:51;12.38;;;8.70;;
13040;SDS011;6587;42.728;23.288;2022-07-24T13:47:18;11.10;;;8.45;;
13040;SDS011;6587;42.728;23.288;2022-07-24T13:49:45;11.07;;;8.98;;
13040;SDS011;6587;42.728;23.288;2022-07-24T13:52:12;11.13;;;9.20;;
13040;SDS011;6587;42.728;23.288;2022-07-24T13:54:41;9.25;;;8.35;;
13040;SDS011;6587;42.728;23.288;2022-07-24T13:57:08;9.82;;;8.02;;
13040;SDS011;6587;42.728;23.288;2022-07-24T13:59:37;9.77;;;8.88;;
13040;SDS011;6587;42.728;23.288;2022-07-24T14:02:04;19.90;;;8.45;;
13040;SDS011;6587;42.728;23.288;2022-07-24T14:04:31;58.97;;;12.98;;
13040;SDS011;6587;42.728;23.288;2022-07-24T14:06:59;28.67;;;11.15;;
13040;SDS011;6587;42.728;23.288;2022-07-24T14:09:27;37.47;;;11.50;;
13040;SDS011;6587;42.728;23.288;2022-07-24T14:11:55;20.98;;;10.55;;
13040;SDS011;6587;42.728;23.288;2022-07-24T14:14:23;24.65;;;11.30;;
13040;SDS011;6587;42.728;23.288;2022-07-24T14:16:50;18.98;;;10.95;;
13040;SDS011;6587;42.728;23.288;2022-07-24T14:19:17;17.73;;;10.35;;
13040;SDS011;6587;42.728;23.288;2022-07-24T14:21:44;11.68;;;9.70;;
13040;SDS011;6587;42.728;23.288;2022-07-24T14:24:13;16.20;;;10.07;;
13040;SDS011;6587;42.728;23.288;2022-07-24T14:26:40;16.63;;;10.38;;
13040;SDS011;6587;42.728;23.288;2022-07-24T14:29:09;11.07;;;9.65;;
13040;SDS011;6587;42.728;23.288;2022-07-24T14:31:36;10.40;;;9.30;;
13040;SDS011;6587;42.728;23.288;2022-07-24T14:34:03;10.25;;;9.20;;
13040;SDS011;6587;42.728;23.288;2022-07-24T14:36:30;12.32;;;9.65;;
13040;SDS011;6587;42.728;23.288;2022-07-24T14:38:56;10.70;;;9.57;;
13040;SDS011;6587;42.728;23.288;2022-07-24T14:41:23;11.23;;;10.13;;
13040;SDS011;6587;42.728;23.288;2022-07-24T14:43:51;11.15;;;9.95;;
13040;SDS011;6587;42.728;23.288;2022-07-24T14:46:19;14.45;;;11.80;;